Time;durP1;ratioP1;P1;durP2;ratioP2;P2;SDS_P1;SDS_P2;PMS_P1;PMS_P2;Temp;Humidity;BMP_temperature;BMP_pressure;BME280_temperature;BME280_humidity;BME280_pressure;Samples;Min_cycle;Max_cycle;Signal;HPM_P1;HPM_P2
2021/11/26 00:00:24;;;;;;;;;;;20.60;62.00;;;;;;4977853;28;1324;-71
2021/11/26 00:02:50;;;;;;;;;;;20.70;62.10;;;;;;4976911;28;1486;-69
2021/11/26 00:05:15;;;;;;;;;;;20.60;62.10;;;;;;4994167;28;1948;-70
2021/11/26 00:07:41;;;;;;;;;;;20.60;62.10;;;;;;4994751;28;1072;-70
2021/11/26 00:10:06;;;;;;;;;;;20.60;62.10;;;;;;5007761;28;1284;-70
2021/11/26 00:12:32;;;;;;;;;;;20.60;62.20;;;;;;4994393;28;1065;-70
2021/11/26 00:17:26;;;;;;;;;;;20.60;62.20;;;;;;4995056;28;1275;-69
2021/11/26 00:19:51;;;;;;;;;;;20.60;62.30;;;;;;4978673;28;1314;-69
2021/11/26 00:22:17;;;;;;;;;;;20.60;62.30;;;;;;5016215;28;1048;-70
2021/11/26 00:24:42;;;;;;;;;;;20.60;62.30;;;;;;4977192;28;2037;-69
2021/11/26 00:27:08;;;;;;;;;;;20.60;62.30;;;;;;5003482;28;1223;-69
2021/11/26 00:29:34;;;;;;;;;;;20.60;62.40;;;;;;4996371;28;1365;-70
2021/11/26 00:31:59;;;;;;;;;;;20.50;62.30;;;;;;5012304;28;1338;-68
2021/11/26 00:34:24;;;;;;;;;;;20.50;62.30;;;;;;5011990;28;1389;-70
2021/11/26 00:36:50;;;;;;;;;;;20.50;62.40;;;;;;4976948;28;1284;-70
2021/11/26 00:39:16;;;;;;;;;;;20.50;62.40;;;;;;4994320;28;1276;-71
2021/11/26 00:41:41;;;;;;;;;;;20.50;62.40;;;;;;5000849;28;1218;-70
2021/11/26 00:44:07;;;;;;;;;;;20.50;62.50;;;;;;5014695;28;1271;-70
2021/11/26 00:46:32;;;;;;;;;;;20.50;62.50;;;;;;4996365;28;1910;-71
2021/11/26 00:48:58;;;;;;;;;;;20.50;62.50;;;;;;5013180;28;1347;-70
2021/11/26 00:51:23;;;;;;;;;;;20.50;62.50;;;;;;4995490;28;1231;-71
2021/11/26 00:53:49;;;;;;;;;;;20.50;62.60;;;;;;5014065;28;1359;-71
2021/11/26 00:56:14;;;;;;;;;;;20.50;62.50;;;;;;5013577;28;1076;-70
2021/11/26 00:58:40;;;;;;;;;;;20.50;62.60;;;;;;5012166;28;1453;-71
2021/11/26 01:01:05;;;;;;;;;;;20.50;62.60;;;;;;5012840;28;1201;-71
2021/11/26 01:03:31;;;;;;;;;;;20.40;62.60;;;;;;5013274;28;1336;-71
2021/11/26 01:05:56;;;;;;;;;;;20.50;63.40;;;;;;4995786;28;1906;-71
2021/11/26 01:08:22;;;;;;;;;;;20.50;62.70;;;;;;4995393;28;1296;-71
2021/11/26 01:10:48;;;;;;;;;;;20.50;62.70;;;;;;4995444;28;1277;-70
2021/11/26 01:13:13;;;;;;;;;;;20.40;62.70;;;;;;4995457;28;1064;-71
2021/11/26 01:15:43;;;;;;;;;;;20.40;62.70;;;;;;5012585;28;1351;-70
2021/11/26 01:18:08;;;;;;;;;;;20.40;62.70;;;;;;4995815;28;1312;-70
2021/11/26 01:20:34;;;;;;;;;;;20.40;62.70;;;;;;5018465;28;1228;-70
2021/11/26 01:23:00;;;;;;;;;;;20.40;62.70;;;;;;4987222;28;1396;-70
2021/11/26 01:25:25;;;;;;;;;;;20.40;62.80;;;;;;5013499;28;1960;-70
2021/11/26 01:27:51;;;;;;;;;;;20.40;62.80;;;;;;5023754;28;1296;-70
2021/11/26 01:30:24;;;;;;;;;;;20.40;62.80;;;;;;4975975;28;1291;-71
2021/11/26 01:32:50;;;;;;;;;;;20.40;62.80;;;;;;4975928;28;1300;-70
2021/11/26 01:35:15;;;;;;;;;;;20.40;63.10;;;;;;4993156;28;1276;-70
2021/11/26 01:37:41;;;;;;;;;;;20.40;62.80;;;;;;4993059;28;1352;-70
2021/11/26 01:40:07;;;;;;;;;;;20.40;62.90;;;;;;4968720;28;1469;-70
2021/11/26 01:42:32;;;;;;;;;;;20.40;62.90;;;;;;4994460;28;1305;-71
2021/11/26 01:44:58;;;;;;;;;;;20.40;62.90;;;;;;5012966;28;1906;-71
2021/11/26 01:47:23;;;;;;;;;;;20.40;62.90;;;;;;5012088;28;1073;-70
2021/11/26 01:49:49;;;;;;;;;;;20.40;62.90;;;;;;4994837;28;1257;-70
2021/11/26 01:52:14;;;;;;;;;;;20.40;62.90;;;;;;5008093;28;1193;-70
2021/11/26 01:54:40;;;;;;;;;;;20.40;62.90;;;;;;5003488;28;1327;-69
2021/11/26 01:57:05;;;;;;;;;;;20.40;62.90;;;;;;5007531;28;1237;-70
2021/11/26 01:59:31;;;;;;;;;;;20.40;63.00;;;;;;5010523;28;1213;-69
2021/11/26 02:01:57;;;;;;;;;;;20.40;63.00;;;;;;5007864;28;1213;-69
2021/11/26 02:04:22;;;;;;;;;;;20.40;63.00;;;;;;4991071;28;1952;-69
2021/11/26 02:06:48;;;;;;;;;;;20.30;62.90;;;;;;5007456;28;1177;-69
2021/11/26 02:09:13;;;;;;;;;;;20.30;63.00;;;;;;4989792;28;1308;-70
2021/11/26 02:11:39;;;;;;;;;;;20.30;63.00;;;;;;5009338;28;1287;-69
2021/11/26 02:14:04;;;;;;;;;;;20.30;63.00;;;;;;5009563;28;1312;-68
2021/11/26 02:16:30;;;;;;;;;;;20.30;63.00;;;;;;4998201;28;1193;-69
2021/11/26 02:18:55;;;;;;;;;;;20.30;63.00;;;;;;4976828;28;1269;-69
2021/11/26 02:21:21;;;;;;;;;;;20.30;63.00;;;;;;5019139;28;1316;-68
2021/11/26 02:23:47;;;;;;;;;;;20.30;63.00;;;;;;4976490;28;1327;-69
2021/11/26 02:26:12;;;;;;;;;;;20.30;63.10;;;;;;4994827;28;1962;-69
2021/11/26 02:28:37;;;;;;;;;;;20.30;63.10;;;;;;4993268;28;1333;-69
2021/11/26 02:31:03;;;;;;;;;;;20.30;63.10;;;;;;4991958;28;1398;-71
2021/11/26 02:33:28;;;;;;;;;;;20.30;63.10;;;;;;4992852;28;1068;-69
2021/11/26 02:35:54;;;;;;;;;;;20.30;63.10;;;;;;4992553;28;1243;-70
2021/11/26 02:38:20;;;;;;;;;;;20.30;63.10;;;;;;4981995;28;1159;-70
2021/11/26 02:40:46;;;;;;;;;;;20.30;63.20;;;;;;4984933;28;1615;-70
2021/11/26 02:43:12;;;;;;;;;;;20.30;63.20;;;;;;4978476;28;1073;-70
2021/11/26 02:45:39;;;;;;;;;;;20.30;63.20;;;;;;5011434;28;1938;-70
2021/11/26 02:48:04;;;;;;;;;;;20.30;63.20;;;;;;4992952;28;1268;-70
2021/11/26 02:50:31;;;;;;;;;;;20.30;63.20;;;;;;4992434;28;1261;-70
2021/11/26 02:52:57;;;;;;;;;;;20.30;63.20;;;;;;4992118;28;1261;-69
2021/11/26 02:55:23;;;;;;;;;;;20.30;63.20;;;;;;4978401;28;1333;-69
2021/11/26 02:57:49;;;;;;;;;;;20.30;63.20;;;;;;4996799;28;1080;-69
2021/11/26 03:00:16;;;;;;;;;;;20.30;63.20;;;;;;4995949;28;1348;-70
2021/11/26 03:02:42;;;;;;;;;;;20.20;63.20;;;;;;4978616;28;1299;-70
2021/11/26 03:05:08;;;;;;;;;;;20.30;63.30;;;;;;4997919;28;1903;-70
2021/11/26 03:07:33;;;;;;;;;;;20.20;64.00;;;;;;4990636;28;1085;-70
2021/11/26 03:10:00;;;;;;;;;;;20.20;63.20;;;;;;4997202;28;1365;-70
2021/11/26 03:12:25;;;;;;;;;;;20.20;63.30;;;;;;4995943;28;1276;-70
2021/11/26 03:14:51;;;;;;;;;;;20.20;63.30;;;;;;5010585;28;1095;-70
2021/11/26 03:17:16;;;;;;;;;;;20.20;63.30;;;;;;5008169;28;1076;-70
2021/11/26 03:19:42;;;;;;;;;;;20.20;63.30;;;;;;5008941;28;1371;-70
2021/11/26 03:22:07;;;;;;;;;;;20.30;63.40;;;;;;5023659;28;1148;-70
2021/11/26 03:24:33;;;;;;;;;;;20.20;63.30;;;;;;5014355;28;1944;-70
2021/11/26 03:26:58;;;;;;;;;;;20.20;63.40;;;;;;5006974;28;1163;-70
2021/11/26 03:29:24;;;;;;;;;;;20.20;63.40;;;;;;4995559;28;1065;-70
2021/11/26 03:31:49;;;;;;;;;;;20.20;63.40;;;;;;4977674;28;1366;-70
2021/11/26 03:34:15;;;;;;;;;;;20.20;63.40;;;;;;4978579;28;1339;-69
2021/11/26 03:36:40;;;;;;;;;;;20.20;63.40;;;;;;4995632;28;1300;-70
2021/11/26 03:39:06;;;;;;;;;;;20.20;63.40;;;;;;4995961;28;1321;-68
2021/11/26 03:41:31;;;;;;;;;;;20.20;63.40;;;;;;5001519;28;1259;-69
2021/11/26 03:43:57;;;;;;;;;;;20.20;63.40;;;;;;5015170;28;1367;-70
2021/11/26 03:46:22;;;;;;;;;;;20.20;63.50;;;;;;5014662;28;1906;-70
2021/11/26 03:48:48;;;;;;;;;;;20.20;63.40;;;;;;5015068;28;1303;-71
2021/11/26 03:51:13;;;;;;;;;;;20.20;63.40;;;;;;5014722;28;1335;-71
2021/11/26 03:53:39;;;;;;;;;;;20.20;63.50;;;;;;5015143;28;1279;-69
2021/11/26 03:56:04;;;;;;;;;;;20.20;63.50;;;;;;5015097;28;1502;-69
2021/11/26 03:58:30;;;;;;;;;;;20.20;63.50;;;;;;5014746;28;1282;-69
2021/11/26 04:00:55;;;;;;;;;;;20.20;63.50;;;;;;5014683;28;1325;-69
2021/11/26 04:03:21;;;;;;;;;;;20.20;63.50;;;;;;4997160;28;1302;-68
2021/11/26 04:05:46;;;;;;;;;;;20.20;63.50;;;;;;4997309;28;1894;-69
2021/11/26 04:08:12;;;;;;;;;;;20.20;63.50;;;;;;5014172;28;1299;-69
2021/11/26 04:10:37;;;;;;;;;;;20.20;63.50;;;;;;5014569;28;1450;-70
2021/11/26 04:13:03;;;;;;;;;;;20.20;63.50;;;;;;5001778;28;1127;-69
2021/11/26 04:15:31;;;;;;;;;;;20.20;63.50;;;;;;4999649;28;1132;-70
2021/11/26 04:17:57;;;;;;;;;;;20.10;63.50;;;;;;4997131;28;1069;-70
2021/11/26 04:20:22;;;;;;;;;;;20.20;63.60;;;;;;4997940;28;1385;-69
2021/11/26 04:22:48;;;;;;;;;;;20.20;63.60;;;;;;5001538;28;1252;-69
2021/11/26 04:25:14;;;;;;;;;;;20.20;63.60;;;;;;4995099;28;1904;-72
2021/11/26 04:27:40;;;;;;;;;;;20.10;63.50;;;;;;4995062;28;1175;-72
2021/11/26 04:30:05;;;;;;;;;;;20.10;63.50;;;;;;4976967;28;1297;-72
2021/11/26 04:32:31;;;;;;;;;;;20.10;63.60;;;;;;4994025;28;1334;-72
2021/11/26 04:34:57;;;;;;;;;;;20.10;63.50;;;;;;4977550;28;1109;-72
2021/11/26 04:37:22;;;;;;;;;;;20.10;63.60;;;;;;4989355;28;1317;-72
2021/11/26 04:39:48;;;;;;;;;;;20.10;63.60;;;;;;4996611;28;1278;-72
2021/11/26 04:42:13;;;;;;;;;;;20.10;63.60;;;;;;5014521;28;1155;-70
2021/11/26 04:44:39;;;;;;;;;;;20.10;63.60;;;;;;5013649;28;1968;-70
2021/11/26 04:47:04;;;;;;;;;;;20.10;64.40;;;;;;5014244;28;1305;-70
2021/11/26 04:49:30;;;;;;;;;;;20.10;63.60;;;;;;5014171;28;1294;-71
2021/11/26 04:51:55;;;;;;;;;;;20.10;63.60;;;;;;5013658;28;1291;-71
2021/11/26 04:54:21;;;;;;;;;;;20.10;63.60;;;;;;4996456;28;1188;-71
2021/11/26 04:56:46;;;;;;;;;;;20.10;63.60;;;;;;5013179;28;1249;-71
2021/11/26 04:59:12;;;;;;;;;;;20.10;63.70;;;;;;5013963;28;1304;-69
2021/11/26 05:01:37;;;;;;;;;;;20.10;63.70;;;;;;5013110;28;1352;-70
2021/11/26 05:04:03;;;;;;;;;;;20.10;63.70;;;;;;5013797;28;1261;-70
2021/11/26 05:06:28;;;;;;;;;;;20.10;63.70;;;;;;5002219;28;1883;-71
2021/11/26 05:08:54;;;;;;;;;;;20.10;63.70;;;;;;5012228;28;1258;-70
2021/11/26 05:11:20;;;;;;;;;;;20.10;63.70;;;;;;5012941;28;1411;-70
2021/11/26 05:13:46;;;;;;;;;;;20.10;63.60;;;;;;5013451;28;1307;-70
2021/11/26 05:16:14;;;;;;;;;;;20.10;63.60;;;;;;5013191;28;1064;-70
2021/11/26 05:18:43;;;;;;;;;;;20.20;63.50;;;;;;4995644;28;1329;-70
2021/11/26 05:21:09;;;;;;;;;;;20.20;63.40;;;;;;5022808;28;1295;-70
2021/11/26 05:23:34;;;;;;;;;;;20.20;63.40;;;;;;4978338;28;1283;-69
2021/11/26 05:26:00;;;;;;;;;;;20.20;63.20;;;;;;5005389;28;1886;-69
2021/11/26 05:28:26;;;;;;;;;;;20.30;63.10;;;;;;4995026;28;1088;-69
2021/11/26 05:30:52;;;;;;;;;;;20.30;63.00;;;;;;4993162;28;1424;-69
2021/11/26 05:33:17;;;;;;;;;;;20.30;62.90;;;;;;4993167;28;1380;-68
2021/11/26 05:35:43;;;;;;;;;;;20.40;62.80;;;;;;4993814;28;1300;-69
2021/11/26 05:38:08;;;;;;;;;;;20.40;62.70;;;;;;4993364;28;1398;-69
2021/11/26 05:40:33;;;;;;;;;;;20.40;62.60;;;;;;4992826;28;1275;-69
2021/11/26 05:42:59;;;;;;;;;;;20.40;62.50;;;;;;4993818;28;1309;-69
2021/11/26 05:45:25;;;;;;;;;;;20.50;62.50;;;;;;4995660;28;1902;-69
2021/11/26 05:47:50;;;;;;;;;;;20.40;62.40;;;;;;5012703;28;1370;-69
2021/11/26 05:50:16;;;;;;;;;;;20.50;62.30;;;;;;5012918;28;1346;-69
2021/11/26 05:52:42;;;;;;;;;;;20.50;62.20;;;;;;5012326;28;1349;-69
2021/11/26 05:55:09;;;;;;;;;;;20.50;62.20;;;;;;4995595;28;1293;-71
2021/11/26 05:57:34;;;;;;;;;;;20.50;62.10;;;;;;5012978;28;1385;-70
2021/11/26 06:00:00;;;;;;;;;;;20.50;62.10;;;;;;5013044;28;1276;-70
2021/11/26 06:02:25;;;;;;;;;;;20.60;62.10;;;;;;4998655;28;1221;-69
2021/11/26 06:04:51;;;;;;;;;;;20.50;62.00;;;;;;4995405;28;1902;-69
2021/11/26 06:07:16;;;;;;;;;;;20.60;62.10;;;;;;5012918;28;1395;-70
2021/11/26 06:09:41;;;;;;;;;;;20.60;62.00;;;;;;5012362;28;1372;-69
2021/11/26 06:12:10;;;;;;;;;;;20.60;62.00;;;;;;5011492;28;1256;-71
2021/11/26 06:14:36;;;;;;;;;;;20.60;61.90;;;;;;5012895;28;1143;-70
2021/11/26 06:17:02;;;;;;;;;;;20.60;61.80;;;;;;4995234;28;1307;-70
2021/11/26 06:19:27;;;;;;;;;;;20.60;61.80;;;;;;4994852;28;1334;-70
2021/11/26 06:21:53;;;;;;;;;;;20.70;61.70;;;;;;5018182;28;1392;-70
2021/11/26 06:24:18;;;;;;;;;;;20.70;61.70;;;;;;5004339;28;816;-71
2021/11/26 06:26:44;;;;;;;;;;;20.70;61.50;;;;;;4995524;28;2041;-70
2021/11/26 06:29:09;;;;;;;;;;;20.70;61.40;;;;;;5005939;28;1057;-70
2021/11/26 06:31:35;;;;;;;;;;;20.70;61.40;;;;;;5003614;28;1338;-70
2021/11/26 06:34:01;;;;;;;;;;;20.70;61.30;;;;;;5016785;28;1342;-70
2021/11/26 06:36:26;;;;;;;;;;;20.80;61.40;;;;;;5011880;28;1094;-70
2021/11/26 06:38:52;;;;;;;;;;;20.80;61.20;;;;;;5007235;28;1176;-70
2021/11/26 06:41:17;;;;;;;;;;;20.80;61.20;;;;;;5003469;28;1251;-71
2021/11/26 06:43:43;;;;;;;;;;;20.80;61.20;;;;;;5005183;28;1163;-70
2021/11/26 06:46:08;;;;;;;;;;;20.80;61.10;;;;;;4995245;28;1973;-70
2021/11/26 06:48:35;;;;;;;;;;;20.80;61.10;;;;;;5007955;28;1101;-70
2021/11/26 06:51:01;;;;;;;;;;;20.80;61.90;;;;;;5011174;28;1305;-70
2021/11/26 06:53:26;;;;;;;;;;;20.80;61.10;;;;;;4979050;28;1332;-70
2021/11/26 06:55:52;;;;;;;;;;;20.80;61.10;;;;;;4992657;28;1188;-70
2021/11/26 06:58:17;;;;;;;;;;;20.80;61.10;;;;;;4996711;28;1785;-69
2021/11/26 07:00:43;;;;;;;;;;;20.80;61.10;;;;;;5005868;28;1808;-70
2021/11/26 07:03:08;;;;;;;;;;;20.90;61.10;;;;;;4991243;28;1075;-71
2021/11/26 07:05:34;;;;;;;;;;;20.80;61.00;;;;;;5008371;28;2212;-70
2021/11/26 07:07:59;;;;;;;;;;;20.80;61.00;;;;;;4999670;28;1238;-70
2021/11/26 07:10:25;;;;;;;;;;;20.90;61.10;;;;;;4998749;28;1934;-69
2021/11/26 07:12:50;;;;;;;;;;;20.90;61.00;;;;;;5012541;28;1118;-69
2021/11/26 07:15:16;;;;;;;;;;;20.90;60.60;;;;;;5009981;28;1865;-69
2021/11/26 07:17:41;;;;;;;;;;;20.80;59.40;;;;;;5009692;28;1132;-70
2021/11/26 07:20:07;;;;;;;;;;;20.80;58.80;;;;;;5013877;28;1291;-70
2021/11/26 07:22:33;;;;;;;;;;;20.80;58.30;;;;;;5012455;28;1044;-70
2021/11/26 07:24:58;;;;;;;;;;;20.80;58.20;;;;;;4998452;28;1898;-70
2021/11/26 07:27:24;;;;;;;;;;;20.80;58.30;;;;;;4996411;28;1139;-68
2021/11/26 07:29:51;;;;;;;;;;;20.80;58.40;;;;;;4996174;28;1309;-70
2021/11/26 07:32:16;;;;;;;;;;;20.80;58.60;;;;;;4994765;28;1376;-69
2021/11/26 07:34:42;;;;;;;;;;;20.80;58.60;;;;;;5013136;28;1124;-69
2021/11/26 07:37:08;;;;;;;;;;;20.80;58.80;;;;;;4997895;28;1328;-70
2021/11/26 07:39:36;;;;;;;;;;;20.80;59.10;;;;;;4997051;28;1353;-69
2021/11/26 07:42:03;;;;;;;;;;;20.80;58.90;;;;;;5013999;28;1241;-68
2021/11/26 07:44:29;;;;;;;;;;;20.80;59.10;;;;;;5015302;28;1287;-68
2021/11/26 07:46:54;;;;;;;;;;;20.80;59.20;;;;;;5015348;28;1966;-68
2021/11/26 07:49:20;;;;;;;;;;;20.80;59.30;;;;;;5015399;28;1254;-68
2021/11/26 07:51:45;;;;;;;;;;;20.80;59.30;;;;;;5004235;28;1193;-68
2021/11/26 07:54:11;;;;;;;;;;;20.80;59.40;;;;;;5012642;28;1261;-69
2021/11/26 07:56:37;;;;;;;;;;;20.90;59.50;;;;;;5014973;28;1106;-70
2021/11/26 07:59:02;;;;;;;;;;;20.90;59.60;;;;;;5014943;28;1354;-70
2021/11/26 08:01:28;;;;;;;;;;;21.00;59.50;;;;;;5013864;28;1525;-70
2021/11/26 08:03:53;;;;;;;;;;;21.10;59.40;;;;;;5014578;28;1256;-70
2021/11/26 08:06:19;;;;;;;;;;;21.20;59.30;;;;;;4996772;28;1891;-70
2021/11/26 08:08:44;;;;;;;;;;;21.30;59.20;;;;;;5013254;28;1300;-69
2021/11/26 08:11:10;;;;;;;;;;;21.40;59.10;;;;;;5012825;28;1214;-70
2021/11/26 08:13:35;;;;;;;;;;;21.50;58.80;;;;;;5013951;28;1551;-71
2021/11/26 08:16:01;;;;;;;;;;;21.60;58.60;;;;;;5012726;28;1619;-69
2021/11/26 08:18:26;;;;;;;;;;;21.70;58.50;;;;;;4997760;28;1323;-69
2021/11/26 08:20:52;;;;;;;;;;;21.80;58.20;;;;;;5009701;28;1211;-69
2021/11/26 08:23:17;;;;;;;;;;;21.90;58.10;;;;;;4999932;28;1294;-69
2021/11/26 08:25:43;;;;;;;;;;;22.00;57.90;;;;;;4994194;28;1945;-70
2021/11/26 08:28:08;;;;;;;;;;;22.00;57.70;;;;;;4995440;28;1199;-69
2021/11/26 08:30:34;;;;;;;;;;;22.10;57.60;;;;;;4994128;28;1355;-69
2021/11/26 08:33:01;;;;;;;;;;;22.10;57.50;;;;;;4999658;28;1294;-71
2021/11/26 08:35:26;;;;;;;;;;;22.20;57.30;;;;;;4977775;28;1430;-70
2021/11/26 08:37:52;;;;;;;;;;;22.20;57.20;;;;;;4987511;28;1306;-71
2021/11/26 08:40:18;;;;;;;;;;;22.30;57.20;;;;;;4994124;28;1265;-72
2021/11/26 08:42:43;;;;;;;;;;;22.30;57.10;;;;;;4992865;28;1163;-72
2021/11/26 08:45:11;;;;;;;;;;;22.40;57.00;;;;;;4996597;28;1961;-71
2021/11/26 08:47:37;;;;;;;;;;;22.40;57.00;;;;;;4996792;28;1289;-72
2021/11/26 08:50:02;;;;;;;;;;;22.40;56.90;;;;;;5013851;28;1362;-71
2021/11/26 08:52:28;;;;;;;;;;;22.50;56.90;;;;;;5012456;28;1296;-71
2021/11/26 08:54:54;;;;;;;;;;;22.50;56.80;;;;;;4996477;28;1316;-71
2021/11/26 08:57:22;;;;;;;;;;;22.50;56.80;;;;;;5013876;28;1092;-71
2021/11/26 08:59:48;;;;;;;;;;;22.60;56.70;;;;;;5013526;28;1342;-70
2021/11/26 09:02:13;;;;;;;;;;;22.60;56.70;;;;;;5012946;28;1359;-71
2021/11/26 09:04:39;;;;;;;;;;;22.60;56.70;;;;;;5014038;28;1894;-71
2021/11/26 09:07:05;;;;;;;;;;;22.60;56.70;;;;;;5011494;28;1822;-70
2021/11/26 09:09:30;;;;;;;;;;;22.60;56.70;;;;;;5007705;28;1256;-71
2021/11/26 09:11:56;;;;;;;;;;;22.70;56.70;;;;;;5005954;28;2069;-71
2021/11/26 09:14:22;;;;;;;;;;;22.70;56.70;;;;;;4996304;28;1242;-68
2021/11/26 09:16:48;;;;;;;;;;;22.70;56.70;;;;;;5002236;28;1139;-68
2021/11/26 09:19:13;;;;;;;;;;;22.70;56.70;;;;;;5002422;28;1372;-67
2021/11/26 09:21:39;;;;;;;;;;;22.70;56.70;;;;;;5014781;28;1240;-69
2021/11/26 09:24:04;;;;;;;;;;;22.70;56.80;;;;;;5004526;28;1386;-70
2021/11/26 09:26:30;;;;;;;;;;;22.70;56.80;;;;;;4996669;28;2008;-70
2021/11/26 09:28:56;;;;;;;;;;;22.70;56.80;;;;;;4995056;28;1992;-70
2021/11/26 09:31:21;;;;;;;;;;;22.70;56.90;;;;;;5007595;28;1688;-70
2021/11/26 09:33:49;;;;;;;;;;;22.70;56.90;;;;;;5004176;28;1492;-69
2021/11/26 09:36:14;;;;;;;;;;;22.80;57.00;;;;;;4996859;28;1358;-70
2021/11/26 09:38:40;;;;;;;;;;;22.70;56.90;;;;;;4993874;28;1442;-68
2021/11/26 09:41:07;;;;;;;;;;;22.80;57.00;;;;;;4996074;28;1664;-68
2021/11/26 09:43:34;;;;;;;;;;;22.70;57.00;;;;;;4995582;28;1619;-68
2021/11/26 09:46:02;;;;;;;;;;;22.70;57.00;;;;;;5013130;28;1985;-67
2021/11/26 09:48:27;;;;;;;;;;;22.70;57.00;;;;;;5013394;28;1826;-68
2021/11/26 09:50:53;;;;;;;;;;;22.70;56.90;;;;;;5013088;28;1724;-70
2021/11/26 09:53:23;;;;;;;;;;;22.70;57.00;;;;;;5009086;28;1250;-69
2021/11/26 09:55:53;;;;;;;;;;;22.70;57.00;;;;;;4992026;28;1368;-68
2021/11/26 09:58:19;;;;;;;;;;;22.60;57.00;;;;;;5004436;28;1337;-67
2021/11/26 10:00:45;;;;;;;;;;;22.60;57.00;;;;;;5007856;28;1235;-69
2021/11/26 10:03:10;;;;;;;;;;;22.60;57.10;;;;;;4992799;28;1582;-67
2021/11/26 10:05:36;;;;;;;;;;;22.60;57.10;;;;;;4992661;28;1900;-68
2021/11/26 10:08:02;;;;;;;;;;;22.60;57.10;;;;;;4975806;28;1344;-66
2021/11/26 10:10:28;;;;;;;;;;;22.60;57.20;;;;;;4993498;28;1709;-67
2021/11/26 10:13:00;;;;;;;;;;;22.50;57.20;;;;;;4992974;28;1667;-70
2021/11/26 10:15:34;;;;;;;;;;;22.50;57.30;;;;;;4995550;28;2071;-71
2021/11/26 10:18:03;;;;;;;;;;;22.50;57.30;;;;;;5011451;28;1641;-69
2021/11/26 10:20:29;;;;;;;;;;;22.50;57.30;;;;;;5003220;28;1574;-68
2021/11/26 10:22:54;;;;;;;;;;;22.50;57.30;;;;;;5005310;28;1558;-69
2021/11/26 10:25:20;;;;;;;;;;;22.50;57.40;;;;;;4992904;28;1956;-68
2021/11/26 10:27:46;;;;;;;;;;;22.50;57.40;;;;;;4977414;28;1515;-69
2021/11/26 10:30:12;;;;;;;;;;;22.50;57.50;;;;;;4992773;28;1807;-70
2021/11/26 10:32:38;;;;;;;;;;;22.40;57.50;;;;;;4992375;28;1310;-69
2021/11/26 10:35:03;;;;;;;;;;;22.40;57.60;;;;;;4994090;28;1763;-69
2021/11/26 10:37:29;;;;;;;;;;;22.40;57.60;;;;;;4990644;28;1376;-69
2021/11/26 10:39:54;;;;;;;;;;;22.40;57.70;;;;;;5003456;28;1446;-69
2021/11/26 10:42:27;;;;;;;;;;;22.40;57.70;;;;;;5005974;28;1539;-68
2021/11/26 10:44:55;;;;;;;;;;;22.40;57.80;;;;;;4995109;28;1918;-68
2021/11/26 10:47:33;;;;;;;;;;;22.30;57.80;;;;;;4995040;28;1613;-68
2021/11/26 10:56:42;;;;;;;;;;;22.30;57.80;;;;;;4995306;28;1459;-70
2021/11/26 11:00:46;;;;;;;;;;;22.20;58.00;;;;;;5012033;28;1435;-69
2021/11/26 11:03:12;;;;;;;;;;;22.20;58.00;;;;;;4994553;28;1475;-69
2021/11/26 11:05:40;;;;;;;;;;;22.20;58.00;;;;;;5012478;28;1902;-69
2021/11/26 11:08:17;;;;;;;;;;;22.20;58.10;;;;;;5012105;28;1590;-69
2021/11/26 11:10:42;;;;;;;;;;;22.30;58.10;;;;;;4994609;28;1417;-69
2021/11/26 11:13:08;;;;;;;;;;;22.20;58.10;;;;;;4994271;28;1770;-69
2021/11/26 11:15:34;;;;;;;;;;;22.30;58.00;;;;;;5013934;28;1714;-69
2021/11/26 11:17:59;;;;;;;;;;;22.30;58.00;;;;;;5015946;28;1208;-69
2021/11/26 11:20:25;;;;;;;;;;;22.40;57.90;;;;;;5002678;28;1700;-69
2021/11/26 11:22:51;;;;;;;;;;;22.40;57.90;;;;;;4992813;28;1323;-69
2021/11/26 11:25:21;;;;;;;;;;;22.40;57.90;;;;;;4996786;28;1895;-69
2021/11/26 11:27:46;;;;;;;;;;;22.50;57.90;;;;;;4988007;28;1456;-69
2021/11/26 11:30:12;;;;;;;;;;;22.50;57.70;;;;;;4996186;28;1627;-68
2021/11/26 11:32:38;;;;;;;;;;;22.50;57.70;;;;;;4994885;28;1363;-68
2021/11/26 11:35:07;;;;;;;;;;;22.50;57.60;;;;;;4995984;28;1377;-69
2021/11/26 11:37:32;;;;;;;;;;;22.50;57.60;;;;;;4978271;28;1350;-69
2021/11/26 11:40:08;;;;;;;;;;;22.50;57.50;;;;;;4978591;28;1459;-69
2021/11/26 11:42:35;;;;;;;;;;;22.50;57.50;;;;;;5009774;28;1469;-69
2021/11/26 11:45:10;;;;;;;;;;;22.50;57.50;;;;;;4998295;28;1902;-69
2021/11/26 11:47:43;;;;;;;;;;;22.50;57.50;;;;;;4997613;28;1486;-69
2021/11/26 11:50:18;;;;;;;;;;;22.50;57.50;;;;;;5015532;28;1171;-69
2021/11/26 11:52:45;;;;;;;;;;;22.50;57.60;;;;;;4996616;28;1727;-69
2021/11/26 11:55:37;;;;;;;;;;;22.50;57.60;;;;;;4997738;28;1715;-69
2021/11/26 11:58:13;;;;;;;;;;;22.50;57.60;;;;;;5011266;28;1552;-68
2021/11/26 12:00:39;;;;;;;;;;;22.40;57.60;;;;;;4997749;28;1619;-69
2021/11/26 12:03:09;;;;;;;;;;;22.40;57.70;;;;;;5014224;28;1374;-69
2021/11/26 12:05:35;;;;;;;;;;;22.40;57.70;;;;;;5014944;28;1955;-69
2021/11/26 12:08:04;;;;;;;;;;;22.40;57.80;;;;;;5014676;28;1684;-69
2021/11/26 12:10:39;;;;;;;;;;;22.40;57.80;;;;;;4997376;28;1567;-69
2021/11/26 12:13:05;;;;;;;;;;;22.40;57.90;;;;;;5013653;28;1662;-69
2021/11/26 12:15:32;;;;;;;;;;;22.40;57.90;;;;;;5015222;28;1189;-69
2021/11/26 12:18:07;;;;;;;;;;;22.30;57.90;;;;;;5006265;28;1951;-69
2021/11/26 12:20:33;;;;;;;;;;;22.30;57.90;;;;;;4989287;28;1705;-70
2021/11/26 12:23:04;;;;;;;;;;;22.30;58.00;;;;;;5007062;28;1139;-69
2021/11/26 12:25:53;;;;;;;;;;;22.30;58.00;;;;;;5007170;28;1989;-69
2021/11/26 12:28:35;;;;;;;;;;;22.30;58.00;;;;;;4989936;28;1400;-70
2021/11/26 12:31:10;;;;;;;;;;;22.30;58.20;;;;;;5004845;28;1267;-69
2021/11/26 12:33:36;;;;;;;;;;;22.30;58.00;;;;;;5003541;28;1056;-69
2021/11/26 12:36:05;;;;;;;;;;;22.40;58.00;;;;;;4994651;28;1299;-69
2021/11/26 12:38:43;;;;;;;;;;;22.40;58.10;;;;;;4997325;28;1876;-69
2021/11/26 12:41:12;;;;;;;;;;;22.40;57.90;;;;;;5007909;28;1378;-69
2021/11/26 12:43:38;;;;;;;;;;;22.40;57.90;;;;;;5011898;28;1142;-68
2021/11/26 12:46:03;;;;;;;;;;;22.40;57.80;;;;;;5005369;28;1906;-70
2021/11/26 12:48:32;;;;;;;;;;;22.40;57.80;;;;;;4994625;28;1284;-70
2021/11/26 12:51:04;;;;;;;;;;;22.40;57.80;;;;;;4993779;28;1419;-69
2021/11/26 12:53:30;;;;;;;;;;;22.40;57.80;;;;;;4994707;28;1331;-69
2021/11/26 12:55:59;;;;;;;;;;;22.40;57.80;;;;;;4976998;28;1377;-69
2021/11/26 12:58:25;;;;;;;;;;;22.50;57.80;;;;;;4994478;28;1259;-69
2021/11/26 13:00:57;;;;;;;;;;;22.50;57.80;;;;;;4993710;28;1368;-69
2021/11/26 13:03:23;;;;;;;;;;;22.50;57.80;;;;;;4993855;28;1269;-69
2021/11/26 13:05:52;;;;;;;;;;;22.40;57.70;;;;;;4976675;28;1891;-69
2021/11/26 13:08:17;;;;;;;;;;;22.50;57.70;;;;;;4994075;28;1335;-69
2021/11/26 13:10:43;;;;;;;;;;;22.40;57.70;;;;;;4993579;28;1282;-69
2021/11/26 13:13:08;;;;;;;;;;;22.40;57.70;;;;;;4993446;28;1896;-70
2021/11/26 13:15:35;;;;;;;;;;;22.40;57.70;;;;;;5004715;28;1975;-69
2021/11/26 13:18:01;;;;;;;;;;;22.40;57.70;;;;;;5006697;28;1528;-70
2021/11/26 13:20:31;;;;;;;;;;;22.40;57.70;;;;;;5014544;28;1415;-68
2021/11/26 13:23:03;;;;;;;;;;;22.40;57.80;;;;;;5010258;28;1482;-68
2021/11/26 13:25:30;;;;;;;;;;;22.40;57.80;;;;;;5009294;28;1954;-69
2021/11/26 13:27:57;;;;;;;;;;;22.40;57.80;;;;;;4982747;28;1449;-69
2021/11/26 13:30:24;;;;;;;;;;;22.30;57.80;;;;;;5013699;28;1370;-69
2021/11/26 13:32:49;;;;;;;;;;;22.30;57.80;;;;;;5011672;28;1369;-69
2021/11/26 13:35:27;;;;;;;;;;;22.30;57.90;;;;;;5005823;28;1579;-68
2021/11/26 13:37:53;;;;;;;;;;;22.30;57.90;;;;;;4996748;28;1387;-69
2021/11/26 13:40:19;;;;;;;;;;;22.30;58.00;;;;;;4993903;28;1648;-69
2021/11/26 13:42:52;;;;;;;;;;;22.30;58.00;;;;;;4989589;28;1310;-68
2021/11/26 13:45:17;;;;;;;;;;;22.30;58.00;;;;;;4994280;28;1902;-68
2021/11/26 13:47:43;;;;;;;;;;;22.20;58.00;;;;;;5008416;28;1639;-68
2021/11/26 13:50:08;;;;;;;;;;;22.30;58.10;;;;;;4995011;28;1294;-68
2021/11/26 13:52:34;;;;;;;;;;;22.20;58.10;;;;;;4994376;28;1590;-67
2021/11/26 13:54:59;;;;;;;;;;;22.20;58.10;;;;;;4992980;28;2417;-69
2021/11/26 13:57:29;;;;;;;;;;;22.20;58.10;;;;;;5003250;28;1361;-69
2021/11/26 14:00:05;;;;;;;;;;;22.20;58.20;;;;;;5004804;28;1351;-69
2021/11/26 14:02:31;;;;;;;;;;;22.20;58.20;;;;;;4994273;28;1406;-69
2021/11/26 14:04:56;;;;;;;;;;;22.20;58.20;;;;;;4992835;28;1964;-68
2021/11/26 14:07:23;;;;;;;;;;;22.20;58.30;;;;;;4993254;28;1391;-69
2021/11/26 14:09:49;;;;;;;;;;;22.20;58.30;;;;;;4993583;28;1681;-69
2021/11/26 14:12:19;;;;;;;;;;;22.20;58.40;;;;;;4975526;28;1431;-70
2021/11/26 14:14:45;;;;;;;;;;;22.10;58.30;;;;;;4993235;28;1446;-69
2021/11/26 14:17:10;;;;;;;;;;;22.10;58.40;;;;;;4975771;28;1594;-69
2021/11/26 14:19:38;;;;;;;;;;;22.10;58.40;;;;;;4975482;28;1706;-69
2021/11/26 14:22:05;;;;;;;;;;;22.10;58.40;;;;;;5016263;28;1744;-69
2021/11/26 14:24:43;;;;;;;;;;;22.10;58.40;;;;;;4987960;28;1416;-69
2021/11/26 14:27:10;;;;;;;;;;;22.10;58.40;;;;;;5017776;28;1961;-70
2021/11/26 14:29:45;;;;;;;;;;;22.10;58.50;;;;;;4975315;28;1374;-69
2021/11/26 14:32:11;;;;;;;;;;;22.00;58.40;;;;;;4975769;28;1661;-69
2021/11/26 14:34:37;;;;;;;;;;;22.00;58.50;;;;;;4995016;28;1146;-67
2021/11/26 14:37:02;;;;;;;;;;;22.00;58.50;;;;;;4995005;28;1286;-69